Time;durP1;ratioP1;P1;durP2;ratioP2;P2;SDS_P1;SDS_P2;PMS_P1;PMS_P2;Temp;Humidity;BMP_temperature;BMP_pressure;BME280_temperature;BME280_humidity;BME280_pressure;Samples;Min_cycle;Max_cycle;Signal;HPM_P1;HPM_P2
2022/06/17 00:01:09;;;;;;;2.35;1.95;;;;;;;21.57;51.42;100509.03;4958282;28;20031;-90
2022/06/17 00:03:34;;;;;;;3.28;2.35;;;;;;;21.58;50.92;100501.72;4952199;28;20027;-91
2022/06/17 00:06:01;;;;;;;4.07;2.60;;;;;;;21.53;51.20;100499.56;4950060;28;20030;-90
2022/06/17 00:08:35;;;;;;;3.22;2.50;;;;;;;21.53;51.34;100504.19;4951290;28;20041;-90
2022/06/17 00:11:00;;;;;;;2.53;2.30;;;;;;;21.51;51.72;100501.66;4966731;28;20042;-91
2022/06/17 00:13:26;;;;;;;4.13;2.70;;;;;;;21.47;51.59;100494.06;4950878;28;20068;-90
2022/06/17 00:15:52;;;;;;;2.78;2.55;;;;;;;21.45;51.70;100493.44;4951643;28;20081;-90
2022/06/17 00:18:19;;;;;;;4.47;2.60;;;;;;;21.48;51.56;100512.09;4952059;28;20018;-91
2022/06/17 00:20:46;;;;;;;3.45;2.60;;;;;;;21.49;51.34;100513.78;4951781;28;20559;-91
2022/06/17 00:23:13;;;;;;;2.92;2.50;;;;;;;21.48;50.90;100510.22;4964646;28;20042;-90
2022/06/17 00:25:40;;;;;;;3.03;2.70;;;;;;;21.47;51.72;100513.13;4951556;28;20034;-90
2022/06/17 00:28:11;;;;;;;4.25;2.67;;;;;;;21.47;51.66;100500.38;4959024;28;20043;-88
2022/06/17 00:30:36;;;;;;;3.53;2.63;;;;;;;21.47;51.17;100486.75;4948284;28;20472;-89
2022/06/17 00:33:02;;;;;;;2.92;2.08;;;;;;;21.49;51.61;100486.56;4954866;28;20030;-91
2022/06/17 00:35:39;;;;;;;2.47;2.20;;;;;;;21.46;51.38;100485.06;4953551;28;20460;-89
2022/06/17 00:38:05;;;;;;;3.90;2.40;;;;;;;21.44;51.30;100487.16;4952639;28;20389;-90
2022/06/17 00:40:33;;;;;;;3.83;2.22;;;;;;;21.45;51.22;100493.44;4957030;28;20035;-91
2022/06/17 00:43:06;;;;;;;3.53;2.38;;;;;;;21.44;50.95;100491.75;4963925;28;20092;-91
2022/06/17 00:45:36;;;;;;;4.90;2.60;;;;;;;21.38;51.15;100498.81;4957048;28;20031;-91
2022/06/17 00:48:18;;;;;;;3.40;2.55;;;;;;;21.36;51.28;100487.28;4952700;28;20492;-90
2022/06/17 00:50:46;;;;;;;2.97;2.22;;;;;;;21.35;51.31;100489.16;4967928;28;20086;-90
2022/06/17 00:53:27;;;;;;;4.10;2.22;;;;;;;21.34;50.64;100492.91;4948280;28;20033;-91
2022/06/17 00:56:08;;;;;;;3.13;2.22;;;;;;;21.30;50.80;100491.63;4952239;28;20489;-90
2022/06/17 00:58:57;;;;;;;2.55;2.13;;;;;;;21.29;51.11;100498.09;4968729;28;20072;-91
2022/06/17 01:01:23;;;;;;;2.83;2.42;;;;;;;21.26;51.07;100497.63;4964917;28;20416;-91
2022/06/17 01:03:52;;;;;;;4.43;2.30;;;;;;;21.23;51.38;100501.56;4949498;28;20354;-91
2022/06/17 01:06:20;;;;;;;2.65;2.22;;;;;;;21.23;51.29;100492.56;4948921;28;20031;-91
2022/06/17 01:11:44;;;;;;;2.80;2.10;;;;;;;21.16;51.43;100500.63;4966764;28;20030;-90
2022/06/17 01:14:13;;;;;;;3.35;2.58;;;;;;;21.11;51.78;100502.25;4967463;28;20026;-91
2022/06/17 01:16:41;;;;;;;3.88;2.20;;;;;;;21.13;51.56;100503.75;4964933;28;20122;-90
2022/06/17 01:19:19;;;;;;;3.83;2.60;;;;;;;21.11;51.75;100508.53;4950667;28;20054;-92
2022/06/17 01:21:51;;;;;;;3.40;2.47;;;;;;;21.14;51.53;100515.47;4979819;28;20027;-91
2022/06/17 01:24:18;;;;;;;2.88;2.28;;;;;;;21.06;52.31;100519.16;4953905;28;20062;-90
2022/06/17 01:26:43;;;;;;;3.00;2.45;;;;;;;20.93;51.53;100514.41;4952529;28;20031;-90
2022/06/17 01:29:13;;;;;;;3.85;2.80;;;;;;;20.88;52.21;100513.31;4967621;28;20038;-90
2022/06/17 01:31:39;;;;;;;2.95;2.50;;;;;;;20.91;52.19;100512.91;4949999;28;20030;-90
2022/06/17 01:34:05;;;;;;;4.28;2.70;;;;;;;20.88;52.20;100519.59;4949254;28;20088;-90
2022/06/17 01:36:30;;;;;;;4.38;2.55;;;;;;;20.88;52.10;100507.84;4950465;28;20026;-90
2022/06/17 01:38:57;;;;;;;4.13;2.60;;;;;;;20.81;52.79;100510.50;4952569;28;20477;-90
2022/06/17 01:41:25;;;;;;;3.38;2.45;;;;;;;20.86;52.41;100507.22;4950084;28;20034;-91
2022/06/17 01:43:58;;;;;;;4.18;2.60;;;;;;;20.83;52.51;100503.00;4950162;28;20094;-90
2022/06/17 01:46:29;;;;;;;3.60;2.15;;;;;;;20.80;53.48;100514.22;4965650;28;20625;-90
2022/06/17 01:49:07;;;;;;;4.22;2.67;;;;;;;20.75;52.61;100516.69;4954446;28;20464;-90
2022/06/17 01:51:35;;;;;;;4.05;2.88;;;;;;;20.65;53.16;100516.97;4943829;28;20022;-89
2022/06/17 01:54:05;;;;;;;3.28;2.63;;;;;;;20.71;52.53;100518.94;4950402;28;20057;-91
2022/06/17 01:56:34;;;;;;;3.33;2.63;;;;;;;20.69;53.03;100509.28;4982039;28;20019;-90
2022/06/17 01:59:08;;;;;;;;;;;;;;;20.68;52.56;100510.31;4965348;28;20365;-91
2022/06/17 02:01:35;;;;;;;2.65;2.45;;;;;;;20.64;53.50;100518.00;4949115;28;19925;-91
2022/06/17 02:04:06;;;;;;;3.42;2.78;;;;;;;20.64;52.49;100520.72;4947823;28;20030;-90
2022/06/17 02:06:36;;;;;;;3.42;2.33;;;;;;;20.68;52.90;100527.47;4950677;28;20118;-90
2022/06/17 02:09:01;;;;;;;3.60;2.28;;;;;;;20.66;53.35;100523.25;4951244;28;20042;-90
2022/06/17 02:11:27;;;;;;;3.17;2.50;;;;;;;20.62;53.90;100527.38;4965499;28;20126;-90
2022/06/17 02:13:52;;;;;;;4.05;2.20;;;;;;;20.61;52.97;100520.25;4951589;28;20030;-90
2022/06/17 02:16:18;;;;;;;3.08;2.35;;;;;;;20.58;53.41;100521.47;4967131;28;20433;-90
2022/06/17 02:18:44;;;;;;;3.97;2.70;;;;;;;20.56;53.21;100514.56;4951047;28;20587;-90
2022/06/17 02:21:13;;;;;;;2.58;2.05;;;;;;;20.54;53.36;100522.06;4963890;28;20058;-90
2022/06/17 02:23:39;;;;;;;3.88;2.47;;;;;;;20.46;53.17;100525.72;4973642;28;20098;-90
2022/06/17 02:26:05;;;;;;;2.85;2.45;;;;;;;20.47;53.21;100515.69;4953494;28;20483;-90
2022/06/17 02:28:31;;;;;;;3.75;2.72;;;;;;;20.45;53.90;100512.31;4953980;28;20026;-90
2022/06/17 02:30:57;;;;;;;2.75;2.40;;;;;;;20.40;53.77;100508.28;4973194;28;20444;-91
2022/06/17 02:33:23;;;;;;;2.78;2.58;;;;;;;20.41;53.47;100514.56;4954090;28;20130;-89
2022/06/17 02:35:56;;;;;;;2.97;2.60;;;;;;;20.43;52.74;100509.78;4951116;28;20469;-90
2022/06/17 02:38:25;;;;;;;3.05;2.35;;;;;;;20.43;52.56;100512.50;4948978;28;20027;-90
2022/06/17 02:40:57;;;;;;;;;;;;;;;20.50;52.29;100515.31;4950946;28;20030;-90
2022/06/17 02:43:25;;;;;;;4.10;2.78;;;;;;;20.57;52.22;100508.94;4951388;28;20325;-91
2022/06/17 02:45:59;;;;;;;2.85;2.38;;;;;;;20.51;52.58;100504.25;4967836;28;20034;-91
2022/06/17 02:48:29;;;;;;;2.63;2.42;;;;;;;20.47;52.29;100505.66;4944419;28;20035;-91
2022/06/17 02:50:56;;;;;;;3.78;2.80;;;;;;;20.46;52.61;100505.84;4953446;28;20026;-90
2022/06/17 02:53:26;;;;;;;3.22;2.60;;;;;;;20.41;52.35;100515.41;4954718;28;20029;-90
2022/06/17 02:55:52;;;;;;;2.92;2.65;;;;;;;20.36;52.42;100508.81;4969096;28;20080;-90
2022/06/17 02:58:56;;;;;;;3.92;2.78;;;;;;;20.35;52.55;100504.41;4967938;28;20106;-90
2022/06/17 03:01:27;;;;;;;4.50;2.70;;;;;;;20.37;53.29;100503.19;4952638;28;20065;-90
2022/06/17 03:03:54;;;;;;;4.10;2.65;;;;;;;20.37;53.04;100505.91;4960019;28;20536;-90
2022/06/17 03:06:27;;;;;;;3.35;2.50;;;;;;;20.37;52.17;100503.19;4950506;28;20025;-90
2022/06/17 03:08:54;;;;;;;3.15;2.85;;;;;;;20.33;52.65;100503.75;4950505;28;20019;-90
2022/06/17 03:11:19;;;;;;;2.80;2.50;;;;;;;20.32;52.18;100507.47;4950964;28;20031;-90
2022/06/17 03:13:49;;;;;;;4.28;2.80;;;;;;;20.38;52.98;100514.91;4954606;28;21008;-90
2022/06/17 03:16:15;;;;;;;4.70;2.80;;;;;;;20.24;53.47;100513.00;4948875;28;20051;-90
2022/06/17 03:18:40;;;;;;;4.38;2.95;;;;;;;20.06;52.95;100516.09;4953007;28;20049;-89
2022/06/17 03:21:09;;;;;;;3.75;2.83;;;;;;;20.17;53.17;100520.22;4952963;28;20034;-90
2022/06/17 03:24:00;;;;;;;3.70;2.95;;;;;;;20.21;53.57;100514.22;4951112;28;20030;-89
2022/06/17 03:26:30;;;;;;;4.28;3.00;;;;;;;20.13;52.83;100514.31;4966233;28;20045;-90
2022/06/17 03:28:57;;;;;;;3.78;2.92;;;;;;;20.10;53.20;100510.09;4950069;28;20035;-90
2022/06/17 03:31:38;;;;;;;2.72;2.40;;;;;;;20.13;53.04;100506.19;4967290;28;20039;-87
2022/06/17 03:34:07;;;;;;;3.53;2.65;;;;;;;20.10;53.55;100509.25;4970393;28;20366;-88
2022/06/17 03:36:35;;;;;;;2.72;2.50;;;;;;;20.13;53.57;100517.03;4955815;28;20028;-90
2022/06/17 03:39:05;;;;;;;3.28;2.83;;;;;;;20.12;54.08;100516.19;4961925;28;20031;-90
2022/06/17 03:41:39;;;;;;;4.22;3.00;;;;;;;20.12;54.08;100524.34;4967367;28;20030;-90
2022/06/17 03:44:14;;;;;;;4.15;2.70;;;;;;;20.07;53.60;100525.94;4971858;28;20030;-90
2022/06/17 03:46:45;;;;;;;6.00;2.80;;;;;;;20.07;53.57;100526.78;4942035;28;20121;-89
2022/06/17 03:49:41;;;;;;;2.85;2.60;;;;;;;20.07;54.30;100515.06;4955857;28;20350;-90
2022/06/17 03:52:36;;;;;;;4.32;2.60;;;;;;;20.12;54.12;100518.91;4964536;28;20135;-90
2022/06/17 03:55:01;;;;;;;3.65;3.20;;;;;;;19.95;53.89;100519.28;4946581;28;20049;-90
2022/06/17 03:57:28;;;;;;;3.47;3.20;;;;;;;20.04;53.65;100527.16;4968965;28;20069;-90
2022/06/17 03:59:54;;;;;;;3.03;2.72;;;;;;;20.09;54.34;100523.88;4983081;28;20040;-91
2022/06/17 04:02:20;;;;;;;3.90;2.97;;;;;;;20.15;54.41;100525.84;4950691;28;20034;-89
2022/06/17 04:04:49;;;;;;;4.95;3.08;;;;;;;20.15;54.31;100523.13;4985207;28;20101;-89
2022/06/17 04:07:15;;;;;;;5.35;3.08;;;;;;;20.16;54.55;100530.25;4968317;28;20381;-88
2022/06/17 04:09:42;;;;;;;3.97;2.70;;;;;;;20.18;54.19;100530.06;4952135;28;20023;-88
2022/06/17 04:12:11;;;;;;;3.78;3.00;;;;;;;20.17;54.74;100534.66;4966065;28;20026;-88
2022/06/17 04:14:50;;;;;;;3.15;2.85;;;;;;;20.15;54.88;100539.44;4970451;28;20038;-89
2022/06/17 04:17:21;;;;;;;2.90;2.70;;;;;;;20.18;54.57;100533.63;4965609;28;20030;-88
2022/06/17 04:19:51;;;;;;;2.97;2.60;;;;;;;20.22;54.50;100531.38;4946734;28;20869;-89
2022/06/17 04:22:21;;;;;;;2.88;2.67;;;;;;;20.25;54.33;100531.84;4951200;28;20022;-88
2022/06/17 04:24:50;;;;;;;4.22;3.30;;;;;;;20.25;55.03;100539.16;4966794;28;20135;-89
2022/06/17 04:27:16;;;;;;;4.07;2.90;;;;;;;20.21;54.93;100548.69;4965775;28;20027;-88
2022/06/17 04:29:45;;;;;;;4.03;2.63;;;;;;;20.24;54.17;100543.75;4950483;28;20034;-88
2022/06/17 04:32:22;;;;;;;3.25;2.67;;;;;;;20.29;55.44;100543.19;4968562;28;20085;-88
2022/06/17 04:34:47;;;;;;;2.95;2.70;;;;;;;;;;4966815;28;20606;-88
2022/06/17 04:37:20;;;;;;;3.30;2.72;;;;;;;20.32;54.82;100551.78;4985306;28;20027;-88
2022/06/17 04:39:58;;;;;;;3.42;2.88;;;;;;;20.35;55.05;100550.63;4953573;28;20018;-88
2022/06/17 04:42:33;;;;;;;4.47;2.90;;;;;;;20.27;56.24;100545.25;4959554;28;20030;-88
2022/06/17 04:44:59;;;;;;;3.70;3.00;;;;;;;20.32;55.46;100551.78;4948377;28;20073;-88
2022/06/17 04:47:25;;;;;;;3.17;2.90;;;;;;;20.40;55.69;100557.19;4965600;28;20034;-88
2022/06/17 04:49:59;;;;;;;2.78;2.50;;;;;;;20.42;56.11;100557.84;4951288;28;20036;-88
2022/06/17 04:52:29;;;;;;;2.88;2.53;;;;;;;20.46;55.69;100554.75;4967404;28;20535;-88
2022/06/17 04:54:57;;;;;;;4.20;3.00;;;;;;;20.47;56.09;100553.72;4981859;28;20150;-88
2022/06/17 04:57:23;;;;;;;3.45;2.85;;;;;;;20.46;56.19;100552.88;4950043;28;20026;-89
2022/06/17 04:59:48;;;;;;;4.30;2.67;;;;;;;20.49;56.50;100560.66;4952335;28;20031;-88
2022/06/17 05:02:17;;;;;;;3.40;2.58;;;;;;;20.51;57.04;100545.00;4967101;28;20030;-88
2022/06/17 05:04:43;;;;;;;3.35;2.38;;;;;;;20.53;56.24;100531.25;4970218;28;20037;-88
2022/06/17 05:07:10;;;;;;;2.97;2.20;;;;;;;20.56;55.98;100525.44;4967110;28;20029;-88
2022/06/17 05:09:49;;;;;;;3.60;2.30;;;;;;;20.54;56.31;100525.63;4952102;28;20103;-88
2022/06/17 05:12:20;;;;;;;4.65;2.00;;;;;;;20.56;56.47;100523.53;4951158;28;20022;-88
2022/06/17 05:14:59;;;;;;;2.60;2.20;;;;;;;20.59;56.19;100523.16;4950560;28;20089;-88
2022/06/17 05:17:24;;;;;;;2.00;1.83;;;;;;;20.66;56.11;100534.13;4963157;28;20555;-88
2022/06/17 05:19:50;;;;;;;3.75;2.25;;;;;;;20.67;56.05;100525.78;4962959;28;20042;-88
2022/06/17 05:22:30;;;;;;;3.28;2.22;;;;;;;20.70;55.70;100519.13;4965194;28;20377;-89
2022/06/17 05:24:56;;;;;;;5.05;2.72;;;;;;;20.68;54.85;100513.03;4950842;28;20085;-88
2022/06/17 05:27:21;;;;;;;2.70;2.30;;;;;;;20.70;55.72;100522.69;4965590;28;20961;-88
2022/06/17 05:29:47;;;;;;;3.58;2.30;;;;;;;20.71;55.11;100516.22;4946378;28;20033;-89
2022/06/17 05:32:14;;;;;;;2.55;2.22;;;;;;;20.78;55.04;100510.00;4945663;28;20066;-89
2022/06/17 05:34:39;;;;;;;4.70;2.35;;;;;;;20.81;54.75;100510.50;4948216;28;20038;-88
2022/06/17 05:37:04;;;;;;;3.08;2.28;;;;;;;20.81;55.35;100524.09;4950736;28;20022;-88
2022/06/17 05:39:30;;;;;;;3.40;2.30;;;;;;;20.80;55.32;100529.69;4948251;28;20038;-89
2022/06/17 05:41:55;;;;;;;3.55;2.13;;;;;;;20.82;55.09;100523.06;4965564;28;20027;-88
2022/06/17 05:44:20;;;;;;;2.55;2.22;;;;;;;20.83;55.13;100518.47;4963818;28;20026;-88
2022/06/17 05:46:47;;;;;;;2.22;1.95;;;;;;;20.85;55.13;100514.53;4950534;28;20103;-93
2022/06/17 05:49:13;;;;;;;5.00;2.20;;;;;;;20.90;54.71;100516.66;4950036;28;20042;-90
2022/06/17 05:51:38;;;;;;;3.55;2.15;;;;;;;20.90;54.84;100512.06;4953202;28;20030;-90
2022/06/17 05:54:03;;;;;;;3.47;2.10;;;;;;;20.94;54.80;100505.22;4951384;28;20034;-91
2022/06/17 05:56:29;;;;;;;2.38;1.90;;;;;;;21.04;55.42;100500.31;4951434;28;20030;-92
2022/06/17 05:58:54;;;;;;;1.85;1.52;;;;;;;21.10;54.40;100503.28;4977540;28;20049;-91
2022/06/17 06:01:19;;;;;;;2.00;1.67;;;;;;;21.15;54.70;100509.84;4953324;28;20027;-91
2022/06/17 06:03:45;;;;;;;2.22;1.95;;;;;;;21.19;54.79;100515.72;4957375;28;20055;-91
2022/06/17 06:06:11;;;;;;;3.05;1.60;;;;;;;21.25;54.64;100512.25;4957426;28;20027;-92
2022/06/17 06:08:36;;;;;;;2.83;1.77;;;;;;;21.29;54.34;100503.56;4987333;28;20027;-90
2022/06/17 06:11:06;;;;;;;2.22;1.60;;;;;;;21.29;55.00;100511.72;4965942;28;20019;-91
2022/06/17 06:13:31;;;;;;;2.33;1.50;;;;;;;21.30;54.98;100507.94;4961026;28;20027;-91
2022/06/17 06:15:59;;;;;;;2.33;1.58;;;;;;;21.32;55.44;100511.31;4964081;28;20033;-91
2022/06/17 06:18:28;;;;;;;2.13;1.45;;;;;;;21.33;55.08;100504.00;4965865;28;20045;-91
2022/06/17 06:20:54;;;;;;;2.72;1.50;;;;;;;21.32;54.75;100491.44;4961741;28;20077;-89
2022/06/17 06:23:19;;;;;;;2.20;1.20;;;;;;;21.35;55.16;100481.00;4976153;28;20058;-91
2022/06/17 06:25:44;;;;;;;2.40;1.52;;;;;;;21.41;55.15;100482.09;4957953;28;20030;-90
2022/06/17 06:28:15;;;;;;;2.17;1.50;;;;;;;21.39;55.53;100495.06;4948117;28;20065;-92
2022/06/17 06:30:41;;;;;;;1.70;1.40;;;;;;;21.36;54.77;100504.44;4983062;28;20033;-92
2022/06/17 06:33:06;;;;;;;1.85;1.65;;;;;;;21.34;54.35;100500.25;4963069;28;20035;-91
2022/06/17 06:35:35;;;;;;;2.75;1.48;;;;;;;21.36;54.63;100503.63;4971278;28;20022;-89
2022/06/17 06:38:01;;;;;;;2.35;1.67;;;;;;;21.38;54.08;100509.69;4990158;28;20027;-91
2022/06/17 06:40:27;;;;;;;1.40;1.10;;;;;;;21.41;53.83;100503.03;4951576;28;20033;-91
2022/06/17 06:42:53;;;;;;;1.95;1.33;;;;;;;21.46;53.62;100495.13;4960347;28;20026;-92
2022/06/17 06:45:32;;;;;;;1.92;1.50;;;;;;;21.58;54.86;100491.66;4954858;28;20113;-91
2022/06/17 06:48:00;;;;;;;1.42;1.33;;;;;;;21.59;54.18;100493.34;4937440;28;20035;-90
2022/06/17 06:50:30;;;;;;;1.40;1.20;;;;;;;21.60;54.28;100489.59;4968307;28;20101;-91
2022/06/17 06:52:56;;;;;;;1.60;1.20;;;;;;;21.67;54.41;100493.19;4956876;28;20117;-92
2022/06/17 06:55:21;;;;;;;1.40;1.30;;;;;;;21.67;53.59;100486.91;4956479;28;20473;-92
2022/06/17 06:57:52;;;;;;;2.42;1.30;;;;;;;21.64;53.22;100481.88;4953647;28;20117;-91
2022/06/17 07:00:24;;;;;;;1.48;1.30;;;;;;;21.62;54.09;100473.06;4948487;28;20030;-92
2022/06/17 07:02:50;;;;;;;1.65;1.30;;;;;;;21.59;53.78;100474.28;4972994;28;20033;-91
2022/06/17 07:05:15;;;;;;;1.50;1.40;;;;;;;21.60;53.78;100480.56;4943874;28;20034;-92
2022/06/17 07:07:41;;;;;;;1.38;1.27;;;;;;;21.61;53.23;100484.97;4944417;28;20034;-91
2022/06/17 07:10:10;;;;;;;1.30;1.20;;;;;;;21.59;53.83;100485.19;4969823;28;20065;-94
2022/06/17 07:12:36;;;;;;;1.70;1.25;;;;;;;21.59;53.09;100484.34;4950334;28;20054;-88
2022/06/17 07:15:01;;;;;;;2.22;1.50;;;;;;;21.61;53.20;100484.97;4969121;28;20054;-88
2022/06/17 07:17:26;;;;;;;1.40;1.10;;;;;;;21.62;53.44;100479.34;4950535;28;20026;-88
2022/06/17 07:19:52;;;;;;;1.63;1.52;;;;;;;21.67;53.24;100489.63;4968476;28;20631;-88
2022/06/17 07:22:17;;;;;;;1.60;1.50;;;;;;;21.69;53.07;100490.28;4964331;28;20026;-75
2022/06/17 07:24:42;;;;;;;1.85;1.40;;;;;;;21.69;53.86;100491.13;4981308;28;20050;-75
2022/06/17 07:27:08;;;;;;;1.40;1.20;;;;;;;21.73;53.35;100497.00;4984677;28;20035;-84
2022/06/17 07:29:33;;;;;;;1.55;1.40;;;;;;;21.73;53.79;100513.34;4966318;28;20030;-86
2022/06/17 07:32:00;;;;;;;2.13;1.20;;;;;;;21.74;53.35;100509.59;4950220;28;20046;-87
2022/06/17 07:34:26;;;;;;;1.30;1.20;;;;;;;21.77;53.42;100513.84;4952294;28;20026;-87
2022/06/17 07:39:53;;;;;;;2.15;1.52;;;;;;;21.86;54.15;100512.66;4964197;28;20037;-86
2022/06/17 07:42:19;;;;;;;1.52;1.30;;;;;;;21.90;54.15;100513.94;4965982;28;20126;-86
2022/06/17 07:44:45;;;;;;;1.58;1.38;;;;;;;21.93;53.28;100516.25;4951915;28;20069;-86
2022/06/17 07:47:15;;;;;;;2.55;1.30;;;;;;;21.95;53.84;100506.84;4948525;28;20058;-86
2022/06/17 07:49:41;;;;;;;1.60;1.35;;;;;;;21.99;53.60;100510.00;4962828;28;20018;-86
2022/06/17 07:52:07;;;;;;;1.83;1.30;;;;;;;22.04;53.63;100504.00;4949495;28;20034;-87
2022/06/17 07:54:32;;;;;;;1.73;1.25;;;;;;;22.06;54.12;100497.31;4963200;28;20276;-87
2022/06/17 07:56:58;;;;;;;1.98;1.30;;;;;;;22.08;54.10;100505.28;4945581;28;20110;-86
2022/06/17 07:59:23;;;;;;;1.30;1.20;;;;;;;22.11;53.98;100504.88;4947363;28;20031;-88
2022/06/17 08:01:48;;;;;;;1.40;1.25;;;;;;;22.07;53.87;100504.44;4950247;28;20092;-87
2022/06/17 08:04:14;;;;;;;1.52;1.40;;;;;;;22.06;53.47;100501.91;4946494;28;20027;-90
2022/06/17 08:06:39;;;;;;;1.30;1.20;;;;;;;22.03;53.32;100497.72;4951348;28;20033;-90
2022/06/17 08:09:04;;;;;;;1.88;1.48;;;;;;;22.03;52.60;100494.13;4948795;28;20798;-90
2022/06/17 08:11:30;;;;;;;1.75;1.40;;;;;;;22.05;53.15;100489.34;4945549;28;20080;-90
2022/06/17 08:13:55;;;;;;;1.67;1.33;;;;;;;22.05;53.15;100486.63;4979810;28;20102;-89
2022/06/17 08:16:21;;;;;;;1.83;1.40;;;;;;;22.08;52.46;100494.38;4948504;28;20026;-90
2022/06/17 08:18:46;;;;;;;1.63;1.40;;;;;;;22.16;52.88;100486.06;4951203;28;20039;-90
2022/06/17 08:21:12;;;;;;;1.73;1.33;;;;;;;22.18;54.18;100482.09;4948960;28;20128;-89
2022/06/17 08:23:37;;;;;;;1.20;1.10;;;;;;;22.18;53.37;100470.34;4951089;28;20065;-90
2022/06/17 08:26:03;;;;;;;1.38;1.27;;;;;;;22.16;52.86;100475.16;4948535;28;20061;-90
2022/06/17 08:28:29;;;;;;;1.40;1.30;;;;;;;22.16;52.57;100472.44;4948227;28;20065;-90
2022/06/17 08:30:56;;;;;;;1.80;1.30;;;;;;;22.20;52.94;100481.88;4949840;28;20384;-90
2022/06/17 08:33:29;;;;;;;1.30;1.20;;;;;;;22.19;52.52;100489.22;4956174;28;20058;-90
2022/06/17 08:36:06;;;;;;;2.00;1.42;;;;;;;22.22;52.37;100483.38;4948850;28;20393;-90
2022/06/17 08:38:34;;;;;;;2.55;1.35;;;;;;;22.25;53.09;100476.69;4945453;28;20465;-90
2022/06/17 08:41:07;;;;;;;1.70;1.20;;;;;;;22.22;51.09;100486.09;4945621;28;20058;-90
2022/06/17 08:44:09;;;;;;;2.38;1.20;;;;;;;22.20;51.79;100482.72;4946061;28;20126;-90
2022/06/17 08:46:47;;;;;;;2.85;1.42;;;;;;;22.21;50.69;100481.69;4907794;28;20045;-90
2022/06/17 08:49:49;;;;;;;1.17;1.02;;;;;;;22.26;52.75;100490.13;4984235;28;20026;-90
2022/06/17 08:52:42;;;;;;;1.60;1.33;;;;;;;22.27;52.21;100490.97;4980028;28;20034;-90
2022/06/17 08:55:32;;;;;;;1.38;1.15;;;;;;;22.32;53.21;100493.94;4981929;28;20049;-90
2022/06/17 08:58:22;;;;;;;1.73;1.25;;;;;;;22.33;53.30;100492.03;4949065;28;20031;-89
2022/06/17 09:01:17;;;;;;;1.88;1.05;;;;;;;22.32;52.77;100491.19;4979793;28;20113;-89
2022/06/17 09:04:02;;;;;;;0.90;0.90;;;;;;;22.35;52.92;100489.97;4981819;28;20429;-90
2022/06/17 09:07:09;;;;;;;1.40;1.20;;;;;;;22.36;53.47;100488.91;4961847;28;20031;-89
2022/06/17 09:10:05;;;;;;;2.60;1.27;;;;;;;22.32;51.01;100485.75;4946366;28;20064;-89
2022/06/17 09:12:37;;;;;;;2.10;1.40;;;;;;;22.34;52.46;100472.75;4981698;28;20117;-90
2022/06/17 09:15:06;;;;;;;1.20;1.10;;;;;;;22.38;52.61;100471.31;4949065;28;20030;-90
2022/06/17 09:17:36;;;;;;;1.85;1.15;;;;;;;22.39;51.77;100477.59;4985435;28;20022;-90
2022/06/17 09:20:04;;;;;;;1.30;1.13;;;;;;;22.41;52.13;100478.25;4979256;28;20062;-90
2022/06/17 09:22:44;;;;;;;1.20;1.10;;;;;;;22.39;51.37;100477.59;4983205;28;20037;-90
2022/06/17 09:25:13;;;;;;;1.75;1.27;;;;;;;22.42;52.54;100477.19;4951131;28;20026;-90
2022/06/17 09:27:42;;;;;;;1.83;1.40;;;;;;;22.36;49.21;100484.31;4963469;28;20029;-90
2022/06/17 09:30:15;;;;;;;1.40;1.08;;;;;;;22.41;50.51;100478.25;4948685;28;20060;-90
2022/06/17 09:33:27;;;;;;;1.20;1.10;;;;;;;22.46;49.54;100479.31;4955055;28;20034;-89
2022/06/17 09:36:02;;;;;;;1.77;1.02;;;;;;;22.49;51.36;100473.47;4884625;29;20119;-89
2022/06/17 09:38:34;;;;;;;1.70;1.33;;;;;;;22.54;50.00;100467.41;4954662;28;20097;-89
2022/06/17 09:41:05;;;;;;;1.30;1.20;;;;;;;22.57;53.11;100458.81;4952052;28;20030;-89
2022/06/17 09:43:48;;;;;;;1.42;1.10;;;;;;;22.57;52.89;100448.75;4954509;28;20039;-89
2022/06/17 09:46:19;;;;;;;1.25;1.05;;;;;;;22.55;52.08;100441.81;4968990;28;20086;-89
2022/06/17 09:49:17;;;;;;;1.73;1.20;;;;;;;22.53;51.46;100444.75;4964140;28;20457;-89
2022/06/17 09:52:14;;;;;;;1.50;1.40;;;;;;;22.56;50.66;100457.13;4967173;28;20400;-90
2022/06/17 09:54:58;;;;;;;1.17;1.10;;;;;;;22.52;51.13;100451.25;4962536;28;20489;-90
2022/06/17 09:57:35;;;;;;;0.95;0.90;;;;;;;22.57;53.41;100448.75;4982918;28;20094;-89
2022/06/17 10:00:08;;;;;;;1.23;1.00;;;;;;;22.60;53.29;100452.94;4948486;28;20381;-89
2022/06/17 10:02:37;;;;;;;1.20;1.10;;;;;;;22.64;53.78;100451.50;4951305;28;20386;-89
2022/06/17 10:05:24;;;;;;;1.23;1.10;;;;;;;22.59;52.32;100445.81;4949161;28;20026;-89
2022/06/17 10:07:56;;;;;;;1.23;1.10;;;;;;;22.62;53.00;100446.25;4981641;28;20023;-90
2022/06/17 10:10:50;;;;;;;1.20;1.10;;;;;;;22.71;54.59;100457.84;4967944;28;20488;-90
2022/06/17 10:13:28;;;;;;;1.60;1.20;;;;;;;22.68;52.45;100455.50;4951779;28;20034;-89
2022/06/17 10:19:16;;;;;;;1.27;1.17;;;;;;;22.69;53.29;100464.50;4953197;28;20073;-89
2022/06/17 10:22:01;;;;;;;0.80;0.80;;;;;;;22.71;54.19;100468.75;4984129;28;20062;-89
2022/06/17 10:24:48;;;;;;;1.83;1.63;;;;;;;22.75;49.65;100467.28;4985546;28;20504;-87
2022/06/17 10:27:32;;;;;;;2.00;1.50;;;;;;;22.72;48.25;100464.97;4985536;28;20042;-87
2022/06/17 10:30:06;;;;;;;1.05;1.05;;;;;;;22.71;50.99;100462.44;4951004;28;20027;-87
2022/06/17 10:32:34;;;;;;;2.60;1.35;;;;;;;22.77;47.15;100459.75;4982224;28;20479;-88
2022/06/17 10:35:02;;;;;;;1.23;1.13;;;;;;;22.74;48.47;100451.97;4950950;28;20521;-87
2022/06/17 10:37:29;;;;;;;2.00;1.10;;;;;;;22.72;48.30;100451.34;4950653;28;20092;-87
2022/06/17 10:39:55;;;;;;;2.03;1.20;;;;;;;22.78;51.07;100457.84;4980859;28;20034;-86
2022/06/17 10:42:20;;;;;;;1.75;1.23;;;;;;;22.81;51.14;100450.13;4965084;28;20608;-87
2022/06/17 10:44:48;;;;;;;1.10;1.05;;;;;;;22.83;51.98;100449.94;4952098;28;20385;-87
2022/06/17 10:47:13;;;;;;;1.88;1.08;;;;;;;22.86;48.46;100450.34;4951488;28;20022;-87
2022/06/17 10:49:42;;;;;;;1.38;1.20;;;;;;;22.86;47.86;100446.78;4984427;28;20121;-87
2022/06/17 10:52:32;;;;;;;3.20;1.25;;;;;;;22.91;47.81;100450.56;4951347;28;20033;-87
2022/06/17 10:54:58;;;;;;;2.30;1.15;;;;;;;22.91;46.43;100445.13;4950239;28;21061;-87
2022/06/17 10:57:30;;;;;;;1.65;1.30;;;;;;;23.00;46.02;100444.94;4953258;28;20398;-88
2022/06/17 10:59:57;;;;;;;1.20;1.05;;;;;;;22.97;46.71;100446.19;4969416;28;20137;-87
2022/06/17 11:02:25;;;;;;;1.70;1.20;;;;;;;22.98;48.41;100438.84;4950936;28;20549;-87
2022/06/17 11:04:58;;;;;;;1.45;1.10;;;;;;;22.98;48.97;100442.41;4967496;28;20022;-88
2022/06/17 11:07:27;;;;;;;1.95;1.30;;;;;;;23.00;49.93;100436.75;4964063;28;20110;-87
2022/06/17 11:10:00;;;;;;;2.35;1.20;;;;;;;23.05;45.82;100434.22;4982902;28;20034;-87
2022/06/17 11:12:34;;;;;;;1.42;1.20;;;;;;;23.09;43.91;100430.88;4951872;28;20129;-87
2022/06/17 11:15:06;;;;;;;1.25;1.08;;;;;;;23.05;44.58;100435.06;4967793;28;20066;-87
2022/06/17 11:17:45;;;;;;;2.83;1.20;;;;;;;23.10;45.19;100432.56;4976685;28;20026;-87
2022/06/17 11:20:19;;;;;;;2.47;0.95;;;;;;;23.27;43.99;100421.25;4980751;28;20047;-87
2022/06/17 11:22:57;;;;;;;0.90;0.73;;;;;;;23.26;45.86;100425.88;4967865;28;20081;-86
2022/06/17 11:25:28;;;;;;;1.25;1.05;;;;;;;23.23;47.37;100415.38;4974603;28;20038;-87
2022/06/17 11:27:57;;;;;;;1.67;1.20;;;;;;;23.22;47.31;100402.78;4983735;28;20038;-86
2022/06/17 11:30:25;;;;;;;1.23;1.13;;;;;;;23.23;47.19;100421.69;4982813;28;20072;-86
2022/06/17 11:32:50;;;;;;;1.55;1.20;;;;;;;23.24;47.35;100415.16;4946673;28;20033;-86
2022/06/17 11:35:25;;;;;;;2.03;1.10;;;;;;;23.27;47.43;100415.81;4985042;28;20027;-87
2022/06/17 11:37:51;;;;;;;1.17;1.00;;;;;;;23.27;47.49;100403.00;4964938;28;20030;-86
2022/06/17 11:40:22;;;;;;;1.00;1.00;;;;;;;23.29;48.61;100394.59;4969028;28;20034;-86
2022/06/17 11:42:56;;;;;;;1.58;1.10;;;;;;;23.33;47.46;100402.16;4950428;28;20031;-86
2022/06/17 11:45:29;;;;;;;1.35;0.90;;;;;;;23.37;46.40;100406.13;4953463;28;20066;-86
2022/06/17 11:48:01;;;;;;;1.15;0.90;;;;;;;23.37;47.71;100405.31;4982224;28;20046;-86
2022/06/17 11:50:33;;;;;;;0.98;0.90;;;;;;;23.37;48.00;100411.59;4943039;28;20023;-86
2022/06/17 11:53:13;;;;;;;1.30;1.10;;;;;;;23.38;48.10;100407.81;4967490;28;20465;-83